sensor_id;sensor_type;location;lat;lon;timestamp;pressure;altitude;pressure_sealevel;temperature;humidity
70555;BME280;58104;52.744;15.242;2022-08-20T00:00:55;100414.87;;;22.30;70.37
70555;BME280;58104;52.744;15.242;2022-08-20T00:03:25;100421.12;;;22.17;71.20
70555;BME280;58104;52.744;15.242;2022-08-20T00:05:49;100427.24;;;21.97;71.68
70555;BME280;58104;52.744;15.242;2022-08-20T00:08:12;100423.26;;;21.96;71.62
70555;BME280;58104;52.744;15.242;2022-08-20T00:10:39;100416.79;;;22.02;71.82
70555;BME280;58104;52.744;15.242;2022-08-20T00:13:04;100416.34;;;22.06;71.80
70555;BME280;58104;52.744;15.242;2022-08-20T00:15:32;100412.85;;;22.07;71.38
70555;BME280;58104;52.744;15.242;2022-08-20T00:17:53;100414.17;;;22.05;71.82
70555;BME280;58104;52.744;15.242;2022-08-20T00:20:20;100417.94;;;22.05;71.20
70555;BME280;58104;52.744;15.242;2022-08-20T00:22:43;100426.28;;;22.06;71.25
70555;BME280;58104;52.744;15.242;2022-08-20T00:25:10;100429.32;;;22.25;70.94
70555;BME280;58104;52.744;15.242;2022-08-20T00:27:35;100430.24;;;21.99;71.72
70555;BME280;58104;52.744;15.242;2022-08-20T00:30:01;100424.14;;;22.09;71.60
70555;BME280;58104;52.744;15.242;2022-08-20T00:32:26;100417.41;;;22.17;71.62
70555;BME280;58104;52.744;15.242;2022-08-20T00:34:51;100423.78;;;21.91;72.19
70555;BME280;58104;52.744;15.242;2022-08-20T00:37:17;100428.72;;;22.29;70.97
70555;BME280;58104;52.744;15.242;2022-08-20T00:39:42;100429.62;;;22.44;70.35
70555;BME280;58104;52.744;15.242;2022-08-20T00:42:08;100432.24;;;22.09;71.65
70555;BME280;58104;52.744;15.242;2022-08-20T00:44:34;100434.62;;;22.10;71.68
70555;BME280;58104;52.744;15.242;2022-08-20T00:46:59;100436.96;;;22.21;71.09
70555;BME280;58104;52.744;15.242;2022-08-20T00:49:27;100438.08;;;22.15;71.06
70555;BME280;58104;52.744;15.242;2022-08-20T00:51:52;100440.60;;;22.40;70.28
70555;BME280;58104;52.744;15.242;2022-08-20T00:54:19;100445.08;;;21.99;71.30
70555;BME280;58104;52.744;15.242;2022-08-20T00:56:41;100444.65;;;22.08;71.07
70555;BME280;58104;52.744;15.242;2022-08-20T00:59:09;100448.58;;;22.40;70.21
70555;BME280;58104;52.744;15.242;2022-08-20T01:01:31;100446.36;;;22.03;71.15
70555;BME280;58104;52.744;15.242;2022-08-20T01:03:56;100451.87;;;22.11;71.21
70555;BME280;58104;52.744;15.242;2022-08-20T01:06:23;100457.57;;;22.14;71.03
70555;BME280;58104;52.744;15.242;2022-08-20T01:08:48;100464.33;;;22.19;70.38
70555;BME280;58104;52.744;15.242;2022-08-20T01:11:13;100471.17;;;22.50;70.00
70555;BME280;58104;52.744;15.242;2022-08-20T01:13:40;100476.14;;;22.45;69.87
70555;BME280;58104;52.744;15.242;2022-08-20T01:16:14;100479.07;;;22.27;70.42
70555;BME280;58104;52.744;15.242;2022-08-20T01:18:29;100480.83;;;22.18;70.52
70555;BME280;58104;52.744;15.242;2022-08-20T01:20:57;100483.15;;;22.26;70.30
70555;BME280;58104;52.744;15.242;2022-08-20T01:23:25;100488.25;;;22.43;69.73
70555;BME280;58104;52.744;15.242;2022-08-20T01:25:48;100489.73;;;22.32;69.98
70555;BME280;58104;52.744;15.242;2022-08-20T01:28:13;100489.28;;;22.54;69.21
70555;BME280;58104;52.744;15.242;2022-08-20T01:30:37;100486.74;;;22.32;69.79
70555;BME280;58104;52.744;15.242;2022-08-20T01:33:03;100485.64;;;22.27;70.26
70555;BME280;58104;52.744;15.242;2022-08-20T01:35:29;100483.03;;;22.54;69.64
70555;BME280;58104;52.744;15.242;2022-08-20T01:37:54;100481.13;;;22.43;69.63
70555;BME280;58104;52.744;15.242;2022-08-20T01:40:26;100475.31;;;22.35;69.63
70555;BME280;58104;52.744;15.242;2022-08-20T01:42:46;100467.56;;;22.66;68.68
70555;BME280;58104;52.744;15.242;2022-08-20T01:45:10;100466.00;;;22.36;69.79
70555;BME280;58104;52.744;15.242;2022-08-20T01:47:35;100463.57;;;22.16;70.05
70555;BME280;58104;52.744;15.242;2022-08-20T01:50:07;100462.91;;;21.96;71.42
70555;BME280;58104;52.744;15.242;2022-08-20T01:52:32;100464.58;;;21.78;71.47
70555;BME280;58104;52.744;15.242;2022-08-20T01:54:52;100473.75;;;21.77;72.10
70555;BME280;58104;52.744;15.242;2022-08-20T01:57:20;100480.24;;;21.72;72.23
70555;BME280;58104;52.744;15.242;2022-08-20T01:59:44;100483.58;;;21.71;72.29
70555;BME280;58104;52.744;15.242;2022-08-20T02:02:10;100485.98;;;21.46;73.24
70555;BME280;58104;52.744;15.242;2022-08-20T02:04:34;100488.94;;;21.53;72.99
70555;BME280;58104;52.744;15.242;2022-08-20T02:07:02;100488.98;;;21.72;72.24
70555;BME280;58104;52.744;15.242;2022-08-20T02:09:27;100491.50;;;21.77;72.20
70555;BME280;58104;52.744;15.242;2022-08-20T02:11:51;100492.62;;;21.66;72.29
70555;BME280;58104;52.744;15.242;2022-08-20T02:14:17;100491.28;;;21.59;72.70
70555;BME280;58104;52.744;15.242;2022-08-20T02:16:44;100490.42;;;21.45;73.34
70555;BME280;58104;52.744;15.242;2022-08-20T02:19:10;100484.76;;;21.44;73.73
70555;BME280;58104;52.744;15.242;2022-08-20T02:21:33;100478.55;;;21.67;72.81
70555;BME280;58104;52.744;15.242;2022-08-20T02:23:59;100475.37;;;21.59;73.37
70555;BME280;58104;52.744;15.242;2022-08-20T02:26:25;100479.84;;;22.16;72.17
70555;BME280;58104;52.744;15.242;2022-08-20T02:28:52;100482.22;;;21.90;72.13
70555;BME280;58104;52.744;15.242;2022-08-20T02:31:15;100480.41;;;21.73;72.41
70555;BME280;58104;52.744;15.242;2022-08-20T02:33:40;100476.86;;;21.71;72.41
70555;BME280;58104;52.744;15.242;2022-08-20T02:36:06;100474.56;;;21.55;72.92
70555;BME280;58104;52.744;15.242;2022-08-20T02:38:31;100472.11;;;21.79;72.62
70555;BME280;58104;52.744;15.242;2022-08-20T02:40:56;100471.13;;;21.77;72.42
70555;BME280;58104;52.744;15.242;2022-08-20T02:43:22;100471.84;;;21.90;72.04
70555;BME280;58104;52.744;15.242;2022-08-20T02:45:47;100470.43;;;21.81;72.35
70555;BME280;58104;52.744;15.242;2022-08-20T02:48:15;100470.34;;;21.57;73.15
70555;BME280;58104;52.744;15.242;2022-08-20T02:50:41;100470.41;;;21.67;72.12
70555;BME280;58104;52.744;15.242;2022-08-20T02:53:04;100463.62;;;21.77;72.44
70555;BME280;58104;52.744;15.242;2022-08-20T02:55:29;100460.23;;;21.75;72.53
70555;BME280;58104;52.744;15.242;2022-08-20T02:57:55;100459.20;;;21.55;72.99
70555;BME280;58104;52.744;15.242;2022-08-20T03:00:21;100454.32;;;21.57;72.73
70555;BME280;58104;52.744;15.242;2022-08-20T03:02:45;100446.52;;;21.61;72.90
70555;BME280;58104;52.744;15.242;2022-08-20T03:05:12;100444.95;;;21.60;72.98
70555;BME280;58104;52.744;15.242;2022-08-20T03:07:40;100443.79;;;21.60;73.08
70555;BME280;58104;52.744;15.242;2022-08-20T03:10:02;100444.49;;;21.49;73.28
70555;BME280;58104;52.744;15.242;2022-08-20T03:12:27;100451.73;;;21.67;72.99
70555;BME280;58104;52.744;15.242;2022-08-20T03:14:53;100454.93;;;21.74;72.52
70555;BME280;58104;52.744;15.242;2022-08-20T03:17:19;100454.30;;;21.45;73.07
70555;BME280;58104;52.744;15.242;2022-08-20T03:19:44;100450.19;;;21.70;72.90
70555;BME280;58104;52.744;15.242;2022-08-20T03:22:10;100445.75;;;21.66;72.22
70555;BME280;58104;52.744;15.242;2022-08-20T03:24:35;100449.57;;;21.66;72.60
70555;BME280;58104;52.744;15.242;2022-08-20T03:27:01;100444.06;;;21.73;72.39
70555;BME280;58104;52.744;15.242;2022-08-20T03:29:26;100445.08;;;21.89;71.73
70555;BME280;58104;52.744;15.242;2022-08-20T03:31:52;100443.83;;;21.66;72.50
70555;BME280;58104;52.744;15.242;2022-08-20T03:34:18;100442.15;;;21.73;72.21
70555;BME280;58104;52.744;15.242;2022-08-20T03:36:43;100442.70;;;21.55;72.75
70555;BME280;58104;52.744;15.242;2022-08-20T03:39:08;100438.71;;;21.70;72.26
70555;BME280;58104;52.744;15.242;2022-08-20T03:41:34;100438.62;;;21.81;72.10
70555;BME280;58104;52.744;15.242;2022-08-20T03:43:59;100434.34;;;21.75;72.12
70555;BME280;58104;52.744;15.242;2022-08-20T03:46:25;100433.55;;;21.68;72.67
70555;BME280;58104;52.744;15.242;2022-08-20T03:48:51;100438.99;;;21.65;72.68
70555;BME280;58104;52.744;15.242;2022-08-20T03:51:16;100442.46;;;21.52;72.84
70555;BME280;58104;52.744;15.242;2022-08-20T03:53:42;100443.74;;;21.50;73.35
70555;BME280;58104;52.744;15.242;2022-08-20T03:56:07;100448.04;;;21.51;73.20
70555;BME280;58104;52.744;15.242;2022-08-20T03:58:34;100447.31;;;21.74;72.11
70555;BME280;58104;52.744;15.242;2022-08-20T04:00:58;100448.76;;;21.68;72.29
70555;BME280;58104;52.744;15.242;2022-08-20T04:03:24;100450.55;;;21.58;72.77
70555;BME280;58104;52.744;15.242;2022-08-20T04:05:49;100451.51;;;21.49;72.75
70555;BME280;58104;52.744;15.242;2022-08-20T04:08:16;100456.06;;;21.57;72.63
70555;BME280;58104;52.744;15.242;2022-08-20T04:10:40;100461.18;;;21.60;72.53
70555;BME280;58104;52.744;15.242;2022-08-20T04:13:06;100465.89;;;21.56;72.74
70555;BME280;58104;52.744;15.242;2022-08-20T04:15:30;100469.25;;;21.58;72.47
70555;BME280;58104;52.744;15.242;2022-08-20T04:17:56;100475.68;;;21.75;72.14
70555;BME280;58104;52.744;15.242;2022-08-20T04:20:23;100478.42;;;21.70;72.37
70555;BME280;58104;52.744;15.242;2022-08-20T04:22:47;100477.00;;;21.50;72.94
70555;BME280;58104;52.744;15.242;2022-08-20T04:25:13;100474.69;;;21.64;72.88
70555;BME280;58104;52.744;15.242;2022-08-20T04:27:38;100474.19;;;21.61;72.73
70555;BME280;58104;52.744;15.242;2022-08-20T04:30:05;100471.90;;;21.62;72.71
70555;BME280;58104;52.744;15.242;2022-08-20T04:32:28;100470.86;;;21.64;72.29
70555;BME280;58104;52.744;15.242;2022-08-20T04:34:54;100474.23;;;22.11;71.34
70555;BME280;58104;52.744;15.242;2022-08-20T04:37:20;100471.94;;;21.66;72.17
70555;BME280;58104;52.744;15.242;2022-08-20T04:39:45;100467.75;;;21.89;71.78
70555;BME280;58104;52.744;15.242;2022-08-20T04:42:10;100470.78;;;21.66;72.75
70555;BME280;58104;52.744;15.242;2022-08-20T04:44:35;100474.46;;;21.74;72.26
70555;BME280;58104;52.744;15.242;2022-08-20T04:47:01;100473.72;;;21.78;72.01
70555;BME280;58104;52.744;15.242;2022-08-20T04:49:26;100478.26;;;21.53;72.93
70555;BME280;58104;52.744;15.242;2022-08-20T04:51:52;100482.85;;;21.38;73.68
70555;BME280;58104;52.744;15.242;2022-08-20T04:54:18;100476.36;;;21.49;73.29
70555;BME280;58104;52.744;15.242;2022-08-20T04:56:43;100474.20;;;21.49;73.20
70555;BME280;58104;52.744;15.242;2022-08-20T04:59:09;100475.96;;;21.83;71.97
70555;BME280;58104;52.744;15.242;2022-08-20T05:01:34;100475.79;;;21.56;72.98
70555;BME280;58104;52.744;15.242;2022-08-20T05:04:00;100479.07;;;21.57;72.92
70555;BME280;58104;52.744;15.242;2022-08-20T05:06:29;100483.17;;;21.53;72.85
70555;BME280;58104;52.744;15.242;2022-08-20T05:08:51;100485.12;;;21.66;72.80
70555;BME280;58104;52.744;15.242;2022-08-20T05:11:16;100485.64;;;21.90;71.36
70555;BME280;58104;52.744;15.242;2022-08-20T05:13:42;100486.39;;;21.91;71.17
70555;BME280;58104;52.744;15.242;2022-08-20T05:16:07;100487.96;;;21.65;72.13
70555;BME280;58104;52.744;15.242;2022-08-20T05:18:32;100492.52;;;21.60;72.48
70555;BME280;58104;52.744;15.242;2022-08-20T05:21:00;100492.44;;;21.90;71.13
70555;BME280;58104;52.744;15.242;2022-08-20T05:23:23;100492.11;;;21.57;72.09
70555;BME280;58104;52.744;15.242;2022-08-20T05:25:49;100496.74;;;21.46;72.47
70555;BME280;58104;52.744;15.242;2022-08-20T05:28:17;100497.01;;;21.60;72.28
70555;BME280;58104;52.744;15.242;2022-08-20T05:30:42;100503.48;;;21.45;72.64
70555;BME280;58104;52.744;15.242;2022-08-20T05:33:07;100502.04;;;21.69;72.11
70555;BME280;58104;52.744;15.242;2022-08-20T05:35:32;100502.13;;;21.78;71.43
70555;BME280;58104;52.744;15.242;2022-08-20T05:37:56;100501.60;;;21.56;72.37
70555;BME280;58104;52.744;15.242;2022-08-20T05:40:22;100500.94;;;21.53;72.11
70555;BME280;58104;52.744;15.242;2022-08-20T05:42:48;100501.87;;;21.76;71.47
70555;BME280;58104;52.744;15.242;2022-08-20T05:45:13;100505.44;;;21.78;71.58
70555;BME280;58104;52.744;15.242;2022-08-20T05:47:39;100504.21;;;21.89;70.97
70555;BME280;58104;52.744;15.242;2022-08-20T05:50:04;100506.30;;;21.98;70.98
70555;BME280;58104;52.744;15.242;2022-08-20T05:52:29;100505.82;;;21.94;70.69
70555;BME280;58104;52.744;15.242;2022-08-20T05:54:55;100502.02;;;21.73;71.74
70555;BME280;58104;52.744;15.242;2022-08-20T05:57:20;100501.07;;;21.46;72.14
70555;BME280;58104;52.744;15.242;2022-08-20T05:59:46;100500.87;;;21.79;71.53
70555;BME280;58104;52.744;15.242;2022-08-20T06:02:11;100504.19;;;22.16;70.17
70555;BME280;58104;52.744;15.242;2022-08-20T06:04:37;100506.77;;;21.82;71.57
70555;BME280;58104;52.744;15.242;2022-08-20T06:07:05;100508.45;;;21.86;70.92
70555;BME280;58104;52.744;15.242;2022-08-20T06:09:29;100505.36;;;21.80;71.42
70555;BME280;58104;52.744;15.242;2022-08-20T06:11:55;100507.05;;;21.78;71.37
70555;BME280;58104;52.744;15.242;2022-08-20T06:14:19;100508.61;;;21.80;71.58
70555;BME280;58104;52.744;15.242;2022-08-20T06:16:45;100509.49;;;21.72;71.47
70555;BME280;58104;52.744;15.242;2022-08-20T06:19:11;100511.39;;;21.81;71.35
70555;BME280;58104;52.744;15.242;2022-08-20T06:21:36;100512.17;;;21.89;71.30
70555;BME280;58104;52.744;15.242;2022-08-20T06:24:01;100513.65;;;21.96;71.08
70555;BME280;58104;52.744;15.242;2022-08-20T06:26:27;100516.67;;;21.95;71.42
70555;BME280;58104;52.744;15.242;2022-08-20T06:28:52;100518.92;;;22.15;70.53
70555;BME280;58104;52.744;15.242;2022-08-20T06:31:17;100516.36;;;22.17;70.82
70555;BME280;58104;52.744;15.242;2022-08-20T06:33:43;100515.61;;;22.34;69.87
70555;BME280;58104;52.744;15.242;2022-08-20T06:36:08;100515.32;;;22.06;70.41
70555;BME280;58104;52.744;15.242;2022-08-20T06:38:33;100517.25;;;22.01;70.61
70555;BME280;58104;52.744;15.242;2022-08-20T06:40:59;100520.12;;;22.02;70.59
70555;BME280;58104;52.744;15.242;2022-08-20T06:43:25;100520.42;;;22.02;70.34
70555;BME280;58104;52.744;15.242;2022-08-20T06:45:51;100519.79;;;22.09;70.54
70555;BME280;58104;52.744;15.242;2022-08-20T06:48:16;100523.81;;;22.15;69.77
70555;BME280;58104;52.744;15.242;2022-08-20T06:50:46;100526.83;;;22.13;69.80
70555;BME280;58104;52.744;15.242;2022-08-20T06:53:09;100527.93;;;22.23;70.18
70555;BME280;58104;52.744;15.242;2022-08-20T06:55:35;100528.39;;;22.13;70.17
70555;BME280;58104;52.744;15.242;2022-08-20T06:58:01;100528.18;;;22.09;70.18
70555;BME280;58104;52.744;15.242;2022-08-20T07:00:26;100529.22;;;22.16;69.79
70555;BME280;58104;52.744;15.242;2022-08-20T07:02:50;100531.92;;;22.09;70.19
70555;BME280;58104;52.744;15.242;2022-08-20T07:05:16;100533.27;;;21.96;70.31
70555;BME280;58104;52.744;15.242;2022-08-20T07:07:44;100532.85;;;21.99;70.48
70555;BME280;58104;52.744;15.242;2022-08-20T07:10:09;100527.15;;;21.76;70.92
70555;BME280;58104;52.744;15.242;2022-08-20T07:12:32;100526.02;;;21.90;70.87
70555;BME280;58104;52.744;15.242;2022-08-20T07:14:57;100526.97;;;21.85;70.78
70555;BME280;58104;52.744;15.242;2022-08-20T07:17:23;100529.26;;;21.86;70.93
70555;BME280;58104;52.744;15.242;2022-08-20T07:19:48;100530.51;;;22.02;70.21
70555;BME280;58104;52.744;15.242;2022-08-20T07:22:13;100528.17;;;22.04;70.12
70555;BME280;58104;52.744;15.242;2022-08-20T07:24:39;100532.68;;;22.15;69.60
70555;BME280;58104;52.744;15.242;2022-08-20T07:27:04;100536.17;;;22.48;69.28
70555;BME280;58104;52.744;15.242;2022-08-20T07:29:30;100534.57;;;22.19;69.74
70555;BME280;58104;52.744;15.242;2022-08-20T07:31:55;100536.12;;;22.27;69.24
70555;BME280;58104;52.744;15.242;2022-08-20T07:34:21;100538.22;;;22.34;69.11
70555;BME280;58104;52.744;15.242;2022-08-20T07:36:47;100538.63;;;22.64;67.96
70555;BME280;58104;52.744;15.242;2022-08-20T07:39:13;100540.63;;;22.76;67.63
70555;BME280;58104;52.744;15.242;2022-08-20T07:41:38;100540.19;;;22.39;68.53
70555;BME280;58104;52.744;15.242;2022-08-20T07:44:03;100540.63;;;22.63;68.53
70555;BME280;58104;52.744;15.242;2022-08-20T07:46:28;100544.22;;;22.93;67.07
70555;BME280;58104;52.744;15.242;2022-08-20T07:48:53;100542.88;;;22.68;67.56
70555;BME280;58104;52.744;15.242;2022-08-20T07:51:20;100540.74;;;22.73;67.62
70555;BME280;58104;52.744;15.242;2022-08-20T07:53:46;100540.57;;;22.58;67.83
70555;BME280;58104;52.744;15.242;2022-08-20T07:56:12;100536.63;;;22.61;67.99
70555;BME280;58104;52.744;15.242;2022-08-20T07:58:38;100535.07;;;22.87;67.01
70555;BME280;58104;52.744;15.242;2022-08-20T08:01:02;100535.51;;;22.90;66.79
70555;BME280;58104;52.744;15.242;2022-08-20T08:03:27;100539.63;;;22.83;67.43
70555;BME280;58104;52.744;15.242;2022-08-20T08:05:52;100539.82;;;22.96;66.65
70555;BME280;58104;52.744;15.242;2022-08-20T08:08:20;100544.73;;;22.99;66.61
70555;BME280;58104;52.744;15.242;2022-08-20T08:10:45;100545.05;;;23.46;65.13
70555;BME280;58104;52.744;15.242;2022-08-20T08:13:09;100544.98;;;23.60;64.08
70555;BME280;58104;52.744;15.242;2022-08-20T08:15:35;100548.54;;;23.76;64.03
70555;BME280;58104;52.744;15.242;2022-08-20T08:18:02;100554.98;;;23.87;63.62
70555;BME280;58104;52.744;15.242;2022-08-20T08:20:26;100557.03;;;23.51;64.84
70555;BME280;58104;52.744;15.242;2022-08-20T08:22:52;100556.77;;;23.50;64.95
70555;BME280;58104;52.744;15.242;2022-08-20T08:25:15;100558.35;;;23.40;65.10
70555;BME280;58104;52.744;15.242;2022-08-20T08:27:41;100559.30;;;23.37;65.37
70555;BME280;58104;52.744;15.242;2022-08-20T08:30:07;100562.63;;;23.45;65.09
70555;BME280;58104;52.744;15.242;2022-08-20T08:32:31;100565.30;;;23.22;65.75
70555;BME280;58104;52.744;15.242;2022-08-20T08:34:57;100574.72;;;23.18;65.78
70555;BME280;58104;52.744;15.242;2022-08-20T08:37:22;100577.85;;;23.04;66.27
70555;BME280;58104;52.744;15.242;2022-08-20T08:39:48;100583.81;;;22.91;66.66
70555;BME280;58104;52.744;15.242;2022-08-20T08:42:25;100584.77;;;22.78;67.06
70555;BME280;58104;52.744;15.242;2022-08-20T08:44:40;100586.70;;;22.85;66.84
70555;BME280;58104;52.744;15.242;2022-08-20T08:47:07;100587.68;;;22.61;68.13
70555;BME280;58104;52.744;15.242;2022-08-20T08:49:32;100586.52;;;22.70;67.61
70555;BME280;58104;52.744;15.242;2022-08-20T08:51:57;100589.89;;;22.52;68.65
70555;BME280;58104;52.744;15.242;2022-08-20T08:54:22;100589.09;;;22.63;67.89
70555;BME280;58104;52.744;15.242;2022-08-20T08:56:48;100588.41;;;22.63;67.77
70555;BME280;58104;52.744;15.242;2022-08-20T08:59:11;100589.00;;;22.34;69.09
70555;BME280;58104;52.744;15.242;2022-08-20T09:01:41;100591.79;;;22.07;70.20
70555;BME280;58104;52.744;15.242;2022-08-20T09:04:02;100593.93;;;22.40;69.18
70555;BME280;58104;52.744;15.242;2022-08-20T09:06:27;100595.86;;;22.37;69.32
70555;BME280;58104;52.744;15.242;2022-08-20T09:08:54;100597.98;;;22.26;69.83
70555;BME280;58104;52.744;15.242;2022-08-20T09:11:20;100601.02;;;22.12;70.51
70555;BME280;58104;52.744;15.242;2022-08-20T09:13:43;100605.09;;;21.76;71.94
70555;BME280;58104;52.744;15.242;2022-08-20T09:16:09;100602.95;;;21.98;71.86
70555;BME280;58104;52.744;15.242;2022-08-20T09:18:33;100606.55;;;22.27;71.09
70555;BME280;58104;52.744;15.242;2022-08-20T09:20:59;100608.26;;;22.13;71.52
70555;BME280;58104;52.744;15.242;2022-08-20T09:23:24;100605.37;;;22.00;71.91
70555;BME280;58104;52.744;15.242;2022-08-20T09:25:50;100606.56;;;22.11;71.30
70555;BME280;58104;52.744;15.242;2022-08-20T09:28:15;100609.12;;;21.97;72.28
70555;BME280;58104;52.744;15.242;2022-08-20T09:30:40;100613.03;;;21.82;73.25
70555;BME280;58104;52.744;15.242;2022-08-20T09:33:06;100611.87;;;21.75;73.39
70555;BME280;58104;52.744;15.242;2022-08-20T09:35:31;100611.55;;;22.11;72.03
70555;BME280;58104;52.744;15.242;2022-08-20T09:37:57;100610.30;;;22.12;72.59
70555;BME280;58104;52.744;15.242;2022-08-20T09:40:22;100614.44;;;22.48;70.42
70555;BME280;58104;52.744;15.242;2022-08-20T09:42:48;100613.98;;;22.19;71.95
70555;BME280;58104;52.744;15.242;2022-08-20T09:45:14;100613.73;;;21.90;72.99
70555;BME280;58104;52.744;15.242;2022-08-20T09:47:39;100616.09;;;22.17;72.09
70555;BME280;58104;52.744;15.242;2022-08-20T09:50:05;100617.16;;;21.93;73.42
70555;BME280;58104;52.744;15.242;2022-08-20T09:52:31;100616.17;;;21.95;73.33
70555;BME280;58104;52.744;15.242;2022-08-20T09:54:59;100616.46;;;22.22;72.08
70555;BME280;58104;52.744;15.242;2022-08-20T09:57:20;100615.94;;;22.06;72.53
70555;BME280;58104;52.744;15.242;2022-08-20T09:59:48;100612.59;;;22.38;71.96
70555;BME280;58104;52.744;15.242;2022-08-20T10:02:10;100612.69;;;22.33;71.49
70555;BME280;58104;52.744;15.242;2022-08-20T10:04:35;100612.60;;;22.59;70.51
70555;BME280;58104;52.744;15.242;2022-08-20T10:07:01;100604.56;;;22.24;71.50
70555;BME280;58104;52.744;15.242;2022-08-20T10:09:26;100606.66;;;22.43;71.11
70555;BME280;58104;52.744;15.242;2022-08-20T10:11:51;100605.26;;;22.40;70.81
70555;BME280;58104;52.744;15.242;2022-08-20T10:14:17;100601.57;;;22.59;70.09
70555;BME280;58104;52.744;15.242;2022-08-20T10:16:42;100600.48;;;22.69;69.74
70555;BME280;58104;52.744;15.242;2022-08-20T10:19:07;100597.12;;;22.92;69.18
70555;BME280;58104;52.744;15.242;2022-08-20T10:21:33;100593.20;;;22.63;69.36
70555;BME280;58104;52.744;15.242;2022-08-20T10:23:59;100592.85;;;22.82;68.06
70555;BME280;58104;52.744;15.242;2022-08-20T10:26:25;100592.92;;;22.72;68.44
70555;BME280;58104;52.744;15.242;2022-08-20T10:28:49;100592.43;;;22.17;70.50
70555;BME280;58104;52.744;15.242;2022-08-20T10:31:15;100596.13;;;22.50;69.49
70555;BME280;58104;52.744;15.242;2022-08-20T10:33:41;100596.52;;;22.83;68.48
70555;BME280;58104;52.744;15.242;2022-08-20T10:36:06;100598.78;;;22.55;69.74
70555;BME280;58104;52.744;15.242;2022-08-20T10:38:30;100595.75;;;22.42;69.78
70555;BME280;58104;52.744;15.242;2022-08-20T10:40:56;100600.37;;;22.80;68.90
70555;BME280;58104;52.744;15.242;2022-08-20T10:43:21;100600.83;;;22.15;71.27
70555;BME280;58104;52.744;15.242;2022-08-20T10:45:47;100606.09;;;21.71;73.09
70555;BME280;58104;52.744;15.242;2022-08-20T10:48:12;100609.89;;;21.88;73.17
70555;BME280;58104;52.744;15.242;2022-08-20T10:50:37;100612.33;;;21.96;72.87
70555;BME280;58104;52.744;15.242;2022-08-20T10:53:02;100613.67;;;21.48;73.96
70555;BME280;58104;52.744;15.242;2022-08-20T10:55:28;100619.46;;;21.70;73.37
70555;BME280;58104;52.744;15.242;2022-08-20T10:57:53;100619.48;;;21.85;72.60
70555;BME280;58104;52.744;15.242;2022-08-20T11:00:18;100622.63;;;22.09;71.58
70555;BME280;58104;52.744;15.242;2022-08-20T11:02:43;100623.70;;;22.03;71.91
70555;BME280;58104;52.744;15.242;2022-08-20T11:05:08;100627.56;;;22.39;69.91
70555;BME280;58104;52.744;15.242;2022-08-20T11:07:35;100627.26;;;21.75;72.03
70555;BME280;58104;52.744;15.242;2022-08-20T11:09:58;100627.58;;;22.08;70.26
70555;BME280;58104;52.744;15.242;2022-08-20T11:12:24;100631.37;;;21.91;71.37
70555;BME280;58104;52.744;15.242;2022-08-20T11:14:50;100630.43;;;21.93;71.42
70555;BME280;58104;52.744;15.242;2022-08-20T11:17:18;100631.22;;;21.82;71.86
70555;BME280;58104;52.744;15.242;2022-08-20T11:19:41;100630.53;;;21.33;73.25
70555;BME280;58104;52.744;15.242;2022-08-20T11:22:05;100637.37;;;21.16;74.10
70555;BME280;58104;52.744;15.242;2022-08-20T11:24:30;100634.98;;;21.51;73.07
70555;BME280;58104;52.744;15.242;2022-08-20T11:26:55;100638.11;;;21.40;74.45
70555;BME280;58104;52.744;15.242;2022-08-20T11:29:20;100641.44;;;21.18;73.94
70555;BME280;58104;52.744;15.242;2022-08-20T11:31:45;100635.25;;;21.43;72.83
70555;BME280;58104;52.744;15.242;2022-08-20T11:34:11;100634.26;;;21.59;72.40
70555;BME280;58104;52.744;15.242;2022-08-20T11:36:37;100638.46;;;21.67;71.46
70555;BME280;58104;52.744;15.242;2022-08-20T11:39:02;100639.37;;;21.48;72.19
70555;BME280;58104;52.744;15.242;2022-08-20T11:41:27;100641.97;;;21.31;72.59
70555;BME280;58104;52.744;15.242;2022-08-20T11:43:52;100642.04;;;21.35;71.81
70555;BME280;58104;52.744;15.242;2022-08-20T11:46:18;100635.05;;;21.43;72.09
70555;BME280;58104;52.744;15.242;2022-08-20T11:48:43;100642.35;;;21.17;73.55
70555;BME280;58104;52.744;15.242;2022-08-20T11:51:08;100644.83;;;21.50;72.44
70555;BME280;58104;52.744;15.242;2022-08-20T11:53:34;100649.85;;;21.46;72.27
70555;BME280;58104;52.744;15.242;2022-08-20T11:56:00;100647.04;;;22.39;68.99
70555;BME280;58104;52.744;15.242;2022-08-20T11:58:25;100648.12;;;22.43;69.48
70555;BME280;58104;52.744;15.242;2022-08-20T12:00:50;100647.28;;;23.11;67.55
70555;BME280;58104;52.744;15.242;2022-08-20T12:03:15;100640.29;;;22.96;66.41
70555;BME280;58104;52.744;15.242;2022-08-20T12:05:43;100634.81;;;23.15;66.41
70555;BME280;58104;52.744;15.242;2022-08-20T12:08:07;100635.57;;;23.61;63.83
70555;BME280;58104;52.744;15.242;2022-08-20T12:10:33;100640.76;;;23.44;65.35
70555;BME280;58104;52.744;15.242;2022-08-20T12:12:57;100642.77;;;23.21;65.91
70555;BME280;58104;52.744;15.242;2022-08-20T12:15:23;100644.85;;;23.68;64.70
70555;BME280;58104;52.744;15.242;2022-08-20T12:17:48;100644.85;;;23.34;65.02
70555;BME280;58104;52.744;15.242;2022-08-20T12:20:14;100637.78;;;23.48;64.59
70555;BME280;58104;52.744;15.242;2022-08-20T12:22:39;100633.59;;;23.40;64.93
70555;BME280;58104;52.744;15.242;2022-08-20T12:25:06;100634.25;;;24.24;62.50
70555;BME280;58104;52.744;15.242;2022-08-20T12:27:30;100630.98;;;24.13;63.12
70555;BME280;58104;52.744;15.242;2022-08-20T12:29:56;100634.64;;;24.87;60.84